»·PEaware :: SWA1847 KBFI-KMRY

SWA1847 :: KBFI-KMRY

FLIGHT INFORMATION

Flight Status: Arrived
Operator:
Southwest Airlines
More flights by this operator :: More flights under this callsign
Pilot: Will K. (13011)
Aircraft: BOEING 737-700
(B737)
More flights by this aircraft type
Origin: KBFI Boeing Field/King Co Intl
United States
Destination: KMRY Monterey Peninsula
United States
More flights between these airports :: More routes between these airports
Route: NRVNA1 TAOMA J5 POWEL LMT J65 SAC J126 SNS
File this flight plan on PilotEdge
Remarks:
Altitude:
(Current/Filed)
35,000ft
Speed:
(Current/Filed)
320kts
Departed: 11-May-18 04:16 PM
Arrived: 11-May-18 05:54 PM
Distance/Time
Traveled:
657nm/1:38
Distance/Time
To Go:
Arrived

Flight Plot

Page will automatically refresh every two minutes.

Flight plan parsing failed; only flown route is shown


Map Options




Map Legend


Flown Route
Filed Route
Departure Airport
Arrival Airport
Navaid (VOR, NDB)
Fix

Horizontal Profiles

Position Reports

Time Latitude Longitude Heading Altitude Ground
Speed
11-May-18 15:34 47.539948 -122.316168 179 25ft 0kts
11-May-18 15:35 47.539948 -122.316168 179 25ft 0kts
11-May-18 15:36 47.539948 -122.316168 179 25ft 0kts
11-May-18 15:37 47.539948 -122.316168 179 25ft 0kts
11-May-18 15:38 47.539948 -122.316168 179 25ft 0kts
11-May-18 15:39 47.539948 -122.316168 179 25ft 0kts
11-May-18 15:40 47.539948 -122.316168 179 25ft 0kts
11-May-18 15:41 47.539948 -122.316168 179 25ft 0kts
11-May-18 15:42 47.539948 -122.316168 179 25ft 0kts
11-May-18 15:43 47.539948 -122.316168 179 25ft 0kts
11-May-18 15:44 47.539948 -122.316168 179 25ft 0kts
11-May-18 15:45 47.539948 -122.316168 179 25ft 0kts
11-May-18 15:46 47.539948 -122.316168 179 25ft 0kts
11-May-18 15:47 47.539948 -122.316168 179 25ft 0kts
11-May-18 15:48 47.539948 -122.316168 179 25ft 0kts
11-May-18 15:49 47.539948 -122.316168 179 25ft 0kts
11-May-18 15:50 47.539948 -122.316168 179 25ft 0kts
11-May-18 15:51 47.539948 -122.316168 179 25ft 0kts
11-May-18 15:52 47.539948 -122.316168 179 25ft 0kts
11-May-18 15:53 47.539948 -122.316168 179 25ft 0kts
11-May-18 15:54 47.539948 -122.316168 179 25ft 0kts
11-May-18 15:55 47.539948 -122.316168 179 25ft 0kts
11-May-18 15:56 47.539948 -122.316168 179 25ft 0kts
11-May-18 15:57 47.539948 -122.316168 179 25ft 0kts
11-May-18 15:58 47.539948 -122.316168 179 25ft 0kts
11-May-18 15:59 47.539948 -122.316168 179 25ft 0kts
11-May-18 16:00 47.539948 -122.316168 179 25ft 0kts
11-May-18 16:01 47.539948 -122.316168 179 25ft 0kts
11-May-18 16:02 47.539948 -122.316168 179 25ft 0kts
11-May-18 16:03 47.539948 -122.316168 179 25ft 0kts
11-May-18 16:04 47.539948 -122.316168 179 25ft 0kts
11-May-18 16:05 47.539948 -122.316168 179 25ft 0kts
11-May-18 16:06 47.539948 -122.316168 179 25ft 0kts
11-May-18 16:07 47.539948 -122.316168 179 25ft 0kts
11-May-18 16:08 47.539948 -122.316168 179 25ft 0kts
11-May-18 16:09 47.539948 -122.316168 179 25ft 0kts
11-May-18 16:10 47.539948 -122.316168 179 25ft 0kts
11-May-18 16:11 47.539948 -122.316168 179 25ft 0kts
11-May-18 16:12 47.539465 -122.314800 97 25ft 2kts
11-May-18 16:13 47.539679 -122.312617 61 25ft 1kts
11-May-18 16:14 47.539680 -122.312614 61 25ft 0kts
11-May-18 16:15 47.540009 -122.311778 61 25ft 8kts
11-May-18 16:16 47.536519 -122.308011 150 26ft 91kts
11-May-18 16:17 47.497942 -122.275361 148 1814ft 175kts
11-May-18 16:18 47.449609 -122.231070 148 2068ft 202kts
11-May-18 16:19 47.402497 -122.189173 148 2113ft 203kts
11-May-18 16:20 47.352599 -122.144874 148 2071ft 209kts
11-May-18 16:21 47.302455 -122.101825 150 2069ft 208kts
11-May-18 16:22 47.244433 -122.068471 166 3164ft 260kts
11-May-18 16:23 47.170192 -122.043439 166 6701ft 286kts
11-May-18 16:24 47.089674 -122.016419 165 10073ft 306kts
11-May-18 16:25 47.004126 -121.987809 164 13277ft 324kts
11-May-18 16:26 46.912924 -121.957313 163 14975ft 341kts
11-May-18 16:27 46.813102 -121.924153 163 16768ft 395kts
11-May-18 16:28 46.703249 -121.887705 163 19745ft 416kts
11-May-18 16:29 46.586907 -121.849216 163 22282ft 438kts
11-May-18 16:30 46.465274 -121.809151 163 24514ft 458kts
11-May-18 16:31 46.337663 -121.767313 163 26350ft 479kts
11-May-18 16:32 46.204985 -121.724140 162 27971ft 498kts
11-May-18 16:33 46.067760 -121.679484 163 29437ft 514kts
11-May-18 16:34 45.926075 -121.633697 162 30871ft 525kts
11-May-18 16:35 45.783711 -121.587968 162 32494ft 527kts
11-May-18 16:36 45.640587 -121.542261 162 33920ft 529kts
11-May-18 16:37 45.496922 -121.496616 162 35147ft 528kts
11-May-18 16:38 45.354340 -121.451566 162 35166ft 522kts
11-May-18 16:39 45.212200 -121.406901 162 35171ft 521kts
11-May-18 16:40 45.070896 -121.362742 162 35177ft 520kts
11-May-18 16:41 44.929708 -121.318888 163 35180ft 520kts
11-May-18 16:42 44.788211 -121.275219 163 35180ft 519kts
11-May-18 16:43 44.647285 -121.232041 163 35178ft 519kts
11-May-18 16:44 44.506338 -121.189553 163 35175ft 518kts
11-May-18 16:45 44.365710 -121.143780 163 35171ft 518kts
11-May-18 16:46 44.225075 -121.100912 166 35167ft 518kts
11-May-18 16:47 44.080789 -121.112350 193 35187ft 523kts
11-May-18 16:48 43.939998 -121.162334 194 35186ft 521kts
11-May-18 16:49 43.799142 -121.209253 194 35184ft 522kts
11-May-18 16:50 43.657413 -121.255420 194 35184ft 522kts
11-May-18 16:51 43.516223 -121.300846 194 35178ft 522kts
11-May-18 16:52 43.374434 -121.346157 194 35169ft 521kts
11-May-18 16:53 43.233458 -121.390977 194 35158ft 521kts
11-May-18 16:54 43.092514 -121.435562 194 35148ft 519kts
11-May-18 16:55 42.951542 -121.479951 194 35138ft 519kts
11-May-18 16:56 42.810823 -121.524052 194 35127ft 519kts
11-May-18 16:57 42.669968 -121.567989 195 35116ft 520kts
11-May-18 16:58 42.528457 -121.611929 195 35103ft 520kts
11-May-18 16:59 42.387324 -121.655649 195 35095ft 521kts
11-May-18 17:00 42.245439 -121.699255 195 35091ft 522kts
11-May-18 17:01 42.103502 -121.740958 193 35091ft 524kts
11-May-18 17:02 41.960407 -121.776733 193 35094ft 523kts
11-May-18 17:03 41.817079 -121.812827 193 35101ft 523kts
11-May-18 17:04 41.674290 -121.848963 193 35094ft 522kts
11-May-18 17:05 41.531858 -121.884750 194 35090ft 521kts
11-May-18 17:06 41.389358 -121.920438 194 35078ft 519kts
11-May-18 17:07 41.247735 -121.955713 194 35060ft 517kts
11-May-18 17:08 41.106324 -121.990791 195 35040ft 514kts
11-May-18 17:09 40.965384 -122.025573 196 35017ft 518kts
11-May-18 17:10 40.824183 -122.060282 197 34982ft 516kts
11-May-18 17:11 40.684361 -122.094536 197 34948ft 513kts
11-May-18 17:12 40.544260 -122.128699 198 34926ft 512kts
11-May-18 17:13 40.404070 -122.162758 198 34918ft 511kts
11-May-18 17:14 40.264578 -122.196502 199 34918ft 511kts
11-May-18 17:15 40.124653 -122.227506 191 34917ft 519kts
11-May-18 17:16 39.979572 -122.189538 165 34916ft 541kts
11-May-18 17:17 39.837204 -122.126940 165 34892ft 540kts
11-May-18 17:18 39.694528 -122.066325 165 34869ft 539kts
11-May-18 17:19 39.551895 -122.006463 166 34861ft 536kts
11-May-18 17:20 39.410316 -121.947480 166 34847ft 533kts
11-May-18 17:21 39.269645 -121.889153 166 34833ft 530kts
11-May-18 17:22 39.129863 -121.831462 166 34817ft 524kts
11-May-18 17:23 38.991466 -121.774561 167 34800ft 520kts
11-May-18 17:24 38.853765 -121.718201 167 34793ft 516kts
11-May-18 17:25 38.717327 -121.662489 167 34772ft 514kts
11-May-18 17:26 38.582616 -121.607772 168 33788ft 512kts
11-May-18 17:27 38.446120 -121.561650 182 32785ft 494kts
11-May-18 17:28 38.310153 -121.557281 188 32734ft 487kts
11-May-18 17:29 38.175274 -121.560026 189 32734ft 485kts
11-May-18 17:30 38.040213 -121.563661 189 32721ft 484kts
11-May-18 17:31 37.906366 -121.567486 189 30566ft 474kts
11-May-18 17:32 37.776468 -121.571254 189 28505ft 457kts
11-May-18 17:33 37.651375 -121.574886 189 26441ft 443kts
11-May-18 17:34 37.530041 -121.578408 189 24415ft 430kts
11-May-18 17:35 37.411543 -121.581853 189 22407ft 420kts
11-May-18 17:36 37.296083 -121.585180 188 20429ft 411kts
11-May-18 17:37 37.201155 -121.587894 187 18767ft 405kts
11-May-18 17:38 37.089996 -121.591123 185 16872ft 394kts
11-May-18 17:39 36.987145 -121.594023 185 15564ft 350kts
11-May-18 17:40 36.892297 -121.596723 185 13300ft 336kts
11-May-18 17:41 36.800406 -121.599755 185 11163ft 316kts
11-May-18 17:42 36.717086 -121.585770 146 8978ft 302kts
11-May-18 17:43 36.651020 -121.528019 143 7585ft 273kts
11-May-18 17:44 36.593560 -121.477496 142 6861ft 235kts
11-May-18 17:45 36.537277 -121.478373 202 6340ft 195kts
11-May-18 17:46 36.501819 -121.519410 260 5197ft 165kts
11-May-18 17:47 36.500950 -121.573173 292 5013ft 153kts
11-May-18 17:48 36.515484 -121.618713 293 4989ft 135kts
11-May-18 17:49 36.530331 -121.661992 292 4750ft 134kts
11-May-18 17:50 36.542621 -121.705470 292 3340ft 134kts
11-May-18 17:51 36.554282 -121.748271 294 2160ft 132kts
11-May-18 17:52 36.569739 -121.790354 291 1407ft 135kts
11-May-18 17:53 36.583418 -121.833499 288 283ft 128kts
11-May-18 17:54 36.589606 -121.850567 344 213ft 7kts
11-May-18 17:55 36.590592 -121.850443 87 213ft 9kts
11-May-18 17:56 36.591455 -121.847394 75 213ft 8kts
11-May-18 17:57 36.591515 -121.847112 76 213ft 0kts
11-May-18 17:58 36.591515 -121.847112 76 213ft 0kts
11-May-18 17:59 36.591515 -121.847112 76 213ft 0kts
11-May-18 18:00 36.591515 -121.847112 76 213ft 0kts
11-May-18 18:01 36.591515 -121.847112 76 213ft 0kts
11-May-18 18:02 36.591515 -121.847112 76 213ft 0kts
11-May-18 18:03 36.591515 -121.847112 76 213ft 0kts
11-May-18 18:04 36.591515 -121.847112 76 213ft 0kts
11-May-18 18:05 36.591515 -121.847112 76 213ft 0kts

Navigation Log

Ident Type
Flight plan parsing failed, navigation log unavailable